Terminal Aerodrome Forecast
Issued by NWS Green Bay, WI

Home | Current Version | Previous Version | Graphics & Text | Print | Product List | Glossary On
Versions: 1 2 3 4 5 6 7 8 9 10 11 12 13 14 15
000
FTUS43 KGRB 211727
TAFGRB
TAF
KGRB 211727Z 2118/2218 35012G19KT P6SM SCT045
      TEMPO 2118/2122 BKN045
     FM212200 36011KT P6SM SCT050
     FM220400 01008KT P6SM FEW030 FEW250
     FM220900 36007KT P6SM SCT030 SCT250
     FM221400 04007KT P6SM SCT030 SCT150 BKN200=

USA.gov is the U.S. government's official web portal to all federal, state and local government web resources and services.